Time;durP1;ratioP1;P1;durP2;ratioP2;P2;SDS_P1;SDS_P2;PMS_P1;PMS_P2;Temp;Humidity;BMP_temperature;BMP_pressure;BME280_temperature;BME280_humidity;BME280_pressure;Samples;Min_cycle;Max_cycle;Signal;HPM_P1;HPM_P2
2022/11/01 00:01:23;;;;;;;20.70;11.82;;;13.50;99.90;;;;;;5035240;28;20401;-64
2022/11/01 00:03:49;;;;;;;21.17;11.73;;;13.50;99.90;;;;;;5033932;28;20040;-63
2022/11/01 00:06:15;;;;;;;20.25;12.43;;;13.60;99.90;;;;;;5035230;28;20191;-63
2022/11/01 00:08:40;;;;;;;19.85;11.98;;;13.60;99.90;;;;;;5034785;28;20044;-63
2022/11/01 00:11:09;;;;;;;18.55;10.75;;;13.60;99.90;;;;;;5033959;28;20041;-64
2022/11/01 00:13:35;;;;;;;22.98;11.95;;;13.70;99.90;;;;;;5052283;28;20044;-64
2022/11/01 00:16:00;;;;;;;22.05;10.75;;;13.70;99.90;;;;;;5018298;28;20401;-64
2022/11/01 00:18:27;;;;;;;18.88;11.80;;;13.70;99.90;;;;;;5034470;28;20095;-63
2022/11/01 00:20:53;;;;;;;17.13;10.25;;;13.70;99.90;;;;;;5034545;28;20060;-64
2022/11/01 00:23:19;;;;;;;16.20;10.45;;;13.70;99.90;;;;;;5034608;28;20440;-64
2022/11/01 00:25:45;;;;;;;22.02;11.18;;;13.80;99.90;;;;;;5033618;28;20041;-64
2022/11/01 00:28:11;;;;;;;16.15;10.10;;;13.80;99.90;;;;;;5052186;28;20037;-64
2022/11/01 00:30:40;;;;;;;19.55;11.23;;;13.80;99.90;;;;;;5017811;28;20485;-64
2022/11/01 00:33:07;;;;;;;21.73;11.55;;;13.80;99.90;;;;;;5033556;28;20037;-64
2022/11/01 00:35:35;;;;;;;15.55;10.23;;;13.80;99.90;;;;;;5034235;28;20079;-64
2022/11/01 00:38:02;;;;;;;19.70;10.80;;;13.80;99.90;;;;;;5017344;28;20436;-64
2022/11/01 00:40:27;;;;;;;16.40;10.05;;;13.90;99.90;;;;;;5052255;28;20041;-64
2022/11/01 00:42:53;;;;;;;17.63;10.30;;;13.80;99.90;;;;;;5051535;28;20503;-64
2022/11/01 00:45:19;;;;;;;24.08;10.68;;;13.90;99.90;;;;;;5051600;28;20048;-64
2022/11/01 00:47:48;;;;;;;15.85;9.90;;;13.90;99.90;;;;;;5033595;28;20044;-64
2022/11/01 00:50:14;;;;;;;15.90;10.10;;;13.90;99.90;;;;;;5052243;28;20047;-64
2022/11/01 00:52:40;;;;;;;14.27;9.38;;;13.90;99.90;;;;;;5051117;28;20045;-64
2022/11/01 00:55:06;;;;;;;16.33;10.25;;;13.90;99.90;;;;;;5034246;28;20066;-64
2022/11/01 00:57:31;;;;;;;15.05;9.45;;;13.90;99.90;;;;;;5034327;28;20163;-64
2022/11/01 00:59:57;;;;;;;16.27;8.57;;;14.00;99.90;;;;;;5051045;28;20493;-64
2022/11/01 01:02:23;;;;;;;18.33;9.13;;;14.00;99.90;;;;;;5052205;28;20515;-64
2022/11/01 01:04:49;;;;;;;18.02;9.02;;;14.00;99.90;;;;;;5033658;28;20041;-64
2022/11/01 01:07:15;;;;;;;16.10;9.18;;;14.00;99.90;;;;;;5051153;28;20045;-64
2022/11/01 01:09:40;;;;;;;14.77;9.38;;;14.00;99.90;;;;;;5033470;28;20041;-64
2022/11/01 01:12:06;;;;;;;19.17;9.00;;;14.00;99.90;;;;;;5033864;28;20036;-64
2022/11/01 01:14:32;;;;;;;14.40;8.70;;;14.00;99.90;;;;;;5033588;28;20425;-64
2022/11/01 01:16:57;;;;;;;14.13;9.10;;;14.10;99.90;;;;;;5051842;28;20548;-63
2022/11/01 01:19:24;;;;;;;18.02;8.60;;;14.10;99.90;;;;;;5034357;28;20533;-64
2022/11/01 01:21:49;;;;;;;15.60;8.25;;;14.10;99.90;;;;;;5032806;28;20186;-64
2022/11/01 01:24:15;;;;;;;15.35;9.52;;;14.10;99.90;;;;;;5033850;28;20501;-64
2022/11/01 01:26:41;;;;;;;16.17;9.20;;;14.20;99.90;;;;;;5033622;28;20045;-64
2022/11/01 01:29:06;;;;;;;13.80;8.95;;;14.20;99.90;;;;;;5050773;28;20120;-63
2022/11/01 01:31:32;;;;;;;16.35;9.30;;;14.20;99.90;;;;;;5034056;28;20071;-63
2022/11/01 01:33:57;;;;;;;18.42;8.77;;;14.10;99.90;;;;;;5017372;28;20037;-64
2022/11/01 01:36:23;;;;;;;15.52;9.32;;;14.10;99.90;;;;;;5033016;28;20041;-64
2022/11/01 01:38:52;;;;;;;22.08;9.98;;;14.20;99.90;;;;;;5033433;28;20075;-64
2022/11/01 01:44:41;;;;;;;16.23;8.73;;;14.20;99.90;;;;;;5033594;28;20481;-64
2022/11/01 01:47:15;;;;;;;19.58;9.32;;;14.10;99.90;;;;;;5033056;28;20041;-64
2022/11/01 01:49:40;;;;;;;16.00;9.05;;;14.10;99.90;;;;;;5050747;28;20112;-64
2022/11/01 01:52:07;;;;;;;13.05;8.55;;;14.10;99.90;;;;;;5033646;28;20124;-64
2022/11/01 01:54:32;;;;;;;13.18;7.75;;;14.10;99.90;;;;;;5033268;28;20485;-64
2022/11/01 01:56:58;;;;;;;14.35;8.45;;;14.10;99.90;;;;;;5032721;28;20044;-64
2022/11/01 01:59:25;;;;;;;15.10;8.27;;;14.10;99.90;;;;;;5052012;28;20033;-64
2022/11/01 02:01:50;;;;;;;19.63;8.35;;;14.10;99.90;;;;;;5036749;28;20036;-64
2022/11/01 02:04:42;;;;;;;14.25;8.23;;;14.10;99.90;;;;;;5036907;28;20039;-64
2022/11/01 02:07:08;;;;;;;16.27;8.52;;;14.10;99.90;;;;;;5037101;28;20083;-64
2022/11/01 02:09:36;;;;;;;18.08;9.02;;;14.00;99.90;;;;;;5054017;28;20160;-64
2022/11/01 02:12:02;;;;;;;15.02;8.82;;;14.10;99.90;;;;;;5054950;28;20114;-64
2022/11/01 02:14:28;;;;;;;14.50;7.88;;;14.10;99.90;;;;;;5037801;28;20041;-64
2022/11/01 02:17:09;;;;;;;13.75;6.78;;;14.10;99.90;;;;;;5035996;28;20486;-64
2022/11/01 02:20:09;;;;;;;14.52;7.57;;;14.10;99.90;;;;;;5037149;28;20076;-64
2022/11/01 02:22:57;;;;;;;13.95;7.68;;;14.20;99.90;;;;;;5015466;28;20374;-64
2022/11/01 02:25:44;;;;;;;14.25;7.65;;;14.20;99.90;;;;;;5054062;28;20486;-64
2022/11/01 02:28:20;;;;;;;14.80;7.47;;;14.20;99.90;;;;;;5037057;28;20592;-64
2022/11/01 02:31:11;;;;;;;14.05;7.18;;;14.20;99.90;;;;;;5035722;28;20056;-64
2022/11/01 02:34:15;;;;;;;13.63;6.97;;;14.30;99.90;;;;;;5036685;28;20086;-64
2022/11/01 02:36:56;;;;;;;10.00;6.28;;;14.30;99.90;;;;;;5036615;28;20123;-64
2022/11/01 02:39:28;;;;;;;13.60;7.13;;;14.40;99.90;;;;;;5053957;28;20116;-64
2022/11/01 02:42:13;;;;;;;12.68;7.32;;;14.40;99.90;;;;;;5054263;28;20112;-64
2022/11/01 02:44:44;;;;;;;15.95;7.85;;;14.50;99.90;;;;;;5035880;28;20076;-64
2022/11/01 02:47:11;;;;;;;12.23;7.45;;;14.50;99.90;;;;;;5036554;28;20397;-64
2022/11/01 02:49:50;;;;;;;12.82;7.05;;;14.50;99.90;;;;;;5036473;28;20041;-64
2022/11/01 02:52:22;;;;;;;13.43;7.70;;;14.50;99.90;;;;;;5035559;28;20052;-64
2022/11/01 02:54:52;;;;;;;14.77;6.65;;;14.50;99.90;;;;;;5036163;28;20385;-64
2022/11/01 02:57:35;;;;;;;14.25;7.00;;;14.50;99.90;;;;;;5054460;28;20045;-64
2022/11/01 03:00:22;;;;;;;12.40;7.03;;;14.40;99.90;;;;;;5035322;28;20045;-64
2022/11/01 03:02:53;;;;;;;11.20;6.57;;;14.50;99.90;;;;;;5035870;28;20045;-64
2022/11/01 03:05:37;;;;;;;15.70;7.65;;;14.50;99.90;;;;;;5036491;28;20083;-64
2022/11/01 03:08:07;;;;;;;15.27;8.00;;;14.50;99.90;;;;;;5019307;28;20094;-64
2022/11/01 03:10:59;;;;;;;11.73;7.57;;;14.50;99.90;;;;;;5019377;28;20076;-64
2022/11/01 03:14:02;;;;;;;16.27;7.18;;;14.50;99.90;;;;;;5035584;28;20039;-64
2022/11/01 03:16:35;;;;;;;13.10;7.63;;;14.50;99.90;;;;;;5054308;28;20372;-64
2022/11/01 03:19:31;;;;;;;12.18;6.35;;;14.50;99.90;;;;;;5019371;28;20041;-63
2022/11/01 03:22:08;;;;;;;15.88;7.10;;;14.50;99.90;;;;;;5052462;28;20079;-64
2022/11/01 03:24:40;;;;;;;12.70;6.82;;;14.50;99.90;;;;;;5035646;28;20098;-64
2022/11/01 03:27:26;;;;;;;11.18;6.65;;;14.50;99.90;;;;;;5034718;28;20044;-64
2022/11/01 03:30:06;;;;;;;13.75;7.25;;;14.60;99.90;;;;;;5035470;28;20083;-64
2022/11/01 03:32:42;;;;;;;13.93;6.47;;;14.60;99.90;;;;;;5053830;28;20033;-64
2022/11/01 03:35:12;;;;;;;14.98;6.43;;;14.70;99.90;;;;;;5034672;28;20494;-64
2022/11/01 03:37:43;;;;;;;12.88;6.43;;;14.70;99.90;;;;;;5035477;28;20116;-64
2022/11/01 03:40:10;;;;;;;14.10;6.78;;;14.70;99.90;;;;;;5035965;28;20040;-64
2022/11/01 03:42:37;;;;;;;11.45;6.45;;;14.70;99.90;;;;;;5052775;28;20115;-64
2022/11/01 03:45:08;;;;;;;17.52;6.72;;;14.80;99.90;;;;;;5035762;28;20149;-64
2022/11/01 03:47:35;;;;;;;15.13;6.80;;;14.80;99.90;;;;;;5053381;28;20064;-64
2022/11/01 03:50:30;;;;;;;13.60;6.43;;;14.80;99.90;;;;;;5034379;28;20072;-64
2022/11/01 03:52:56;;;;;;;10.48;6.28;;;14.80;99.90;;;;;;5014760;28;20457;-64
2022/11/01 03:55:22;;;;;;;13.57;6.80;;;14.80;99.90;;;;;;5052686;28;20029;-64
2022/11/01 03:57:59;;;;;;;10.45;6.20;;;14.80;99.90;;;;;;5035247;28;20520;-64
2022/11/01 04:00:32;;;;;;;11.00;5.93;;;14.80;99.90;;;;;;5053187;28;20041;-64
2022/11/01 04:02:58;;;;;;;12.18;6.18;;;14.80;99.90;;;;;;5034483;28;20041;-64
2022/11/01 04:05:27;;;;;;;10.48;6.55;;;14.80;99.90;;;;;;5035265;28;20044;-64
2022/11/01 04:07:53;;;;;;;12.25;5.93;;;14.90;99.90;;;;;;5034702;28;20045;-64
2022/11/01 04:10:20;;;;;;;10.23;5.72;;;14.90;99.90;;;;;;5018046;28;20116;-64
2022/11/01 04:12:47;;;;;;;11.85;6.68;;;14.90;99.90;;;;;;5052728;28;20045;-64
2022/11/01 04:20:51;;;;;;;13.65;5.93;;;15.00;99.90;;;;;;5052548;28;20045;-64
2022/11/01 04:23:17;;;;;;;13.48;6.07;;;15.10;99.90;;;;;;5051280;28;20394;-64
2022/11/01 04:25:47;;;;;;;13.05;5.72;;;15.10;99.90;;;;;;5034725;28;20063;-64
2022/11/01 04:28:14;;;;;;;16.55;6.47;;;15.20;99.90;;;;;;5018613;28;20037;-64
2022/11/01 04:30:40;;;;;;;13.45;5.95;;;15.20;99.90;;;;;;5033960;28;20112;-64
2022/11/01 04:33:06;;;;;;;13.57;6.60;;;15.20;99.90;;;;;;5034357;28;20040;-64
2022/11/01 04:35:34;;;;;;;9.40;5.68;;;15.20;99.90;;;;;;5052846;28;20048;-64
2022/11/01 04:37:59;;;;;;;14.40;6.82;;;15.20;99.90;;;;;;5051636;28;20262;-64
2022/11/01 04:40:25;;;;;;;12.90;6.85;;;15.20;99.90;;;;;;5052650;28;20560;-64
2022/11/01 04:42:53;;;;;;;13.95;6.20;;;15.20;99.90;;;;;;5034415;28;20041;-64
2022/11/01 04:45:19;;;;;;;9.52;5.68;;;15.20;99.90;;;;;;5034416;28;20041;-64
2022/11/01 04:47:51;;;;;;;10.23;5.40;;;15.20;99.90;;;;;;5033971;28;20556;-64
2022/11/01 04:50:20;;;;;;;15.02;6.22;;;15.20;99.90;;;;;;5034718;28;20044;-63
2022/11/01 04:52:46;;;;;;;10.85;6.95;;;15.20;99.90;;;;;;5051152;28;20167;-64
2022/11/01 04:55:12;;;;;;;12.35;5.53;;;15.20;99.90;;;;;;5052585;28;20037;-64
2022/11/01 04:57:41;;;;;;;14.32;5.78;;;15.30;99.90;;;;;;5034233;28;20047;-64
2022/11/01 05:00:11;;;;;;;10.10;4.70;;;15.20;99.90;;;;;;5033849;28;20482;-64
2022/11/01 05:02:38;;;;;;;11.02;5.75;;;15.20;99.90;;;;;;5034555;28;20067;-64
2022/11/01 05:05:06;;;;;;;11.73;5.20;;;15.20;99.90;;;;;;5033907;28;20127;-64
2022/11/01 05:07:32;;;;;;;13.25;6.38;;;15.20;99.90;;;;;;5034374;28;20071;-64
2022/11/01 05:09:58;;;;;;;11.07;4.70;;;15.10;99.90;;;;;;5033989;28;20501;-64
2022/11/01 05:12:23;;;;;;;7.82;3.35;;;15.10;99.90;;;;;;5051514;28;20040;-64
2022/11/01 05:14:49;;;;;;;8.15;2.92;;;15.10;99.90;;;;;;5034287;28;20041;-64
2022/11/01 05:17:15;;;;;;;9.85;2.83;;;15.10;99.90;;;;;;5034455;28;20394;-64
2022/11/01 05:19:40;;;;;;;4.78;2.08;;;15.10;99.90;;;;;;5033125;28;20512;-64
2022/11/01 05:22:06;;;;;;;5.00;1.63;;;15.00;99.90;;;;;;5033983;28;20401;-64
2022/11/01 05:24:32;;;;;;;4.40;1.58;;;15.00;99.90;;;;;;5052318;28;20037;-64
2022/11/01 05:26:59;;;;;;;7.50;1.55;;;15.00;99.90;;;;;;5051112;28;20398;-64
2022/11/01 05:29:25;;;;;;;5.43;1.52;;;14.90;99.90;;;;;;5034216;28;20045;-63
2022/11/01 05:31:51;;;;;;;5.47;1.65;;;14.90;99.90;;;;;;5051398;28;20037;-64
2022/11/01 05:34:17;;;;;;;7.70;2.08;;;14.80;99.90;;;;;;5051380;28;20111;-64
2022/11/01 05:36:42;;;;;;;6.25;2.00;;;14.80;99.90;;;;;;5038213;28;20532;-64
2022/11/01 05:39:08;;;;;;;6.60;1.65;;;14.70;99.90;;;;;;5038020;28;20128;-64
2022/11/01 05:41:34;;;;;;;8.82;2.08;;;14.70;99.90;;;;;;5020854;28;20037;-63
2022/11/01 05:43:59;;;;;;;5.43;2.00;;;14.60;99.90;;;;;;5038059;28;20037;-64
2022/11/01 05:46:25;;;;;;;4.18;1.73;;;14.60;99.90;;;;;;5055900;28;20477;-63
2022/11/01 05:48:51;;;;;;;6.10;1.55;;;14.60;99.90;;;;;;5036589;28;20125;-63
2022/11/01 05:51:16;;;;;;;7.13;1.60;;;14.50;99.90;;;;;;5056141;28;20432;-63
2022/11/01 05:53:42;;;;;;;7.05;1.50;;;14.50;99.90;;;;;;5038074;28;20408;-63
2022/11/01 05:56:07;;;;;;;5.35;1.60;;;14.40;99.90;;;;;;5054914;28;20037;-64
2022/11/01 05:58:33;;;;;;;6.47;1.83;;;14.40;99.90;;;;;;5037606;28;20531;-64
2022/11/01 06:01:05;;;;;;;8.07;1.90;;;14.40;99.90;;;;;;5037891;28;20053;-64
2022/11/01 06:03:31;;;;;;;8.70;1.92;;;14.30;99.90;;;;;;5036932;28;20049;-63
2022/11/01 06:05:57;;;;;;;7.20;1.90;;;14.30;99.90;;;;;;5037443;28;20052;-63
2022/11/01 06:08:24;;;;;;;5.65;1.55;;;14.20;99.90;;;;;;5037097;28;20069;-64
2022/11/01 06:10:50;;;;;;;8.10;1.65;;;14.20;99.90;;;;;;5055240;28;20116;-63
2022/11/01 06:13:17;;;;;;;8.63;1.80;;;14.20;99.90;;;;;;5055845;28;20045;-64
2022/11/01 06:15:42;;;;;;;13.70;2.38;;;14.20;99.90;;;;;;5054169;28;20505;-64
2022/11/01 06:18:08;;;;;;;5.45;1.40;;;14.10;99.90;;;;;;5037052;28;20048;-64
2022/11/01 06:20:37;;;;;;;6.70;2.40;;;14.10;99.90;;;;;;5037591;28;20066;-64
2022/11/01 06:23:15;;;;;;;7.40;1.95;;;14.10;99.90;;;;;;5036298;28;20064;-64
2022/11/01 06:25:41;;;;;;;6.75;2.00;;;14.10;99.90;;;;;;5054993;28;20048;-64
2022/11/01 06:28:07;;;;;;;10.07;2.25;;;14.00;99.90;;;;;;5020496;28;20041;-64
2022/11/01 06:30:32;;;;;;;11.23;1.67;;;14.00;99.90;;;;;;5035965;28;20041;-64
2022/11/01 06:33:00;;;;;;;5.47;1.65;;;13.90;99.90;;;;;;5037081;28;20116;-64
2022/11/01 06:35:26;;;;;;;9.57;1.75;;;13.90;99.90;;;;;;5037176;28;20474;-64
2022/11/01 06:37:53;;;;;;;6.45;1.52;;;13.80;99.90;;;;;;5035882;28;20049;-64
2022/11/01 06:40:19;;;;;;;8.10;1.75;;;13.80;99.90;;;;;;5054941;28;20123;-64
2022/11/01 06:42:44;;;;;;;6.63;2.03;;;13.70;99.90;;;;;;5054514;28;20125;-64
2022/11/01 06:45:10;;;;;;;7.18;1.90;;;13.70;99.90;;;;;;5019037;28;20433;-64
2022/11/01 06:47:36;;;;;;;8.98;2.10;;;13.70;99.90;;;;;;5036570;28;20125;-64
2022/11/01 06:50:02;;;;;;;9.00;1.75;;;13.70;99.90;;;;;;5054588;28;20090;-64
2022/11/01 06:52:27;;;;;;;9.30;2.55;;;13.60;99.90;;;;;;5054067;28;20120;-64
2022/11/01 06:54:53;;;;;;;8.55;2.50;;;13.60;99.90;;;;;;5036373;28;20120;-64
2022/11/01 06:57:19;;;;;;;7.70;2.35;;;13.60;99.90;;;;;;5036738;28;20063;-64
2022/11/01 06:59:44;;;;;;;9.50;2.03;;;13.60;99.90;;;;;;5035181;28;20387;-64
2022/11/01 07:02:10;;;;;;;8.18;2.50;;;13.60;99.90;;;;;;5054708;28;20148;-64
2022/11/01 07:04:36;;;;;;;11.63;2.45;;;13.60;99.90;;;;;;5036339;28;20374;-64
2022/11/01 07:07:03;;;;;;;9.38;2.78;;;13.60;99.90;;;;;;5018968;28;20084;-64
2022/11/01 07:09:28;;;;;;;8.60;2.63;;;13.60;99.90;;;;;;5036794;28;20442;-64
2022/11/01 07:11:54;;;;;;;9.93;2.17;;;13.60;99.90;;;;;;5035182;28;20132;-64
2022/11/01 07:14:20;;;;;;;10.27;2.38;;;13.70;99.90;;;;;;5054562;28;20080;-64
2022/11/01 07:16:45;;;;;;;9.43;2.10;;;13.70;99.90;;;;;;5035763;28;20037;-64
2022/11/01 07:19:11;;;;;;;8.70;2.63;;;13.70;99.90;;;;;;5035944;28;20036;-64
2022/11/01 07:21:37;;;;;;;13.10;3.42;;;13.70;99.90;;;;;;5035999;28;20481;-64
2022/11/01 07:24:03;;;;;;;7.88;2.13;;;13.70;99.90;;;;;;5035849;28;20041;-64
2022/11/01 07:26:28;;;;;;;8.60;1.90;;;13.70;99.90;;;;;;5035356;28;20077;-64
2022/11/01 07:28:54;;;;;;;9.20;1.98;;;13.70;99.90;;;;;;5035485;28;20036;-64
2022/11/01 07:31:20;;;;;;;8.38;1.92;;;13.70;99.90;;;;;;5036318;28;20037;-64
2022/11/01 07:33:45;;;;;;;13.45;3.60;;;13.70;99.90;;;;;;5035039;28;20041;-64
2022/11/01 07:36:11;;;;;;;11.65;2.72;;;13.70;99.90;;;;;;5033955;28;20033;-63
2022/11/01 07:38:37;;;;;;;11.02;2.30;;;13.70;99.90;;;;;;5044382;28;20048;-64
2022/11/01 07:41:05;;;;;;;8.43;2.70;;;13.80;99.90;;;;;;5054906;28;20090;-64
2022/11/01 07:43:34;;;;;;;9.02;1.95;;;13.80;99.90;;;;;;5064561;28;20044;-64
2022/11/01 07:46:03;;;;;;;11.60;3.22;;;13.80;99.90;;;;;;5032979;28;20124;-63
2022/11/01 07:48:28;;;;;;;13.95;3.08;;;13.80;99.90;;;;;;5017946;28;20127;-64
2022/11/01 07:50:56;;;;;;;9.65;2.90;;;13.80;99.90;;;;;;5016270;28;20120;-63
2022/11/01 07:53:21;;;;;;;10.32;3.22;;;13.80;99.90;;;;;;5033730;28;20049;-63
2022/11/01 07:55:47;;;;;;;13.07;3.63;;;13.80;99.90;;;;;;5032084;28;20049;-63
2022/11/01 07:58:14;;;;;;;10.93;3.13;;;13.80;99.90;;;;;;5031774;28;20058;-63
2022/11/01 08:00:40;;;;;;;10.32;3.20;;;13.80;99.90;;;;;;5050017;28;20119;-64
2022/11/01 08:03:12;;;;;;;12.40;2.47;;;13.80;99.90;;;;;;5031329;28;20520;-63
2022/11/01 08:05:39;;;;;;;20.38;3.63;;;13.80;99.90;;;;;;5032529;28;20508;-64
2022/11/01 08:08:06;;;;;;;13.07;2.60;;;13.90;99.90;;;;;;5049297;28;20556;-64
2022/11/01 08:10:32;;;;;;;12.13;2.85;;;13.90;99.90;;;;;;5050765;28;20037;-64
2022/11/01 08:13:03;;;;;;;12.35;3.67;;;13.90;99.90;;;;;;5032453;28;20449;-64
2022/11/01 08:15:29;;;;;;;14.55;3.20;;;13.90;99.90;;;;;;5031937;28;20048;-63
2022/11/01 08:17:58;;;;;;;16.33;2.97;;;13.90;99.90;;;;;;5055015;28;20481;-63
2022/11/01 08:20:25;;;;;;;18.23;3.70;;;13.80;99.90;;;;;;5052920;28;20554;-63
2022/11/01 08:22:51;;;;;;;12.38;3.45;;;13.80;99.90;;;;;;5045326;28;20053;-63
2022/11/01 08:25:17;;;;;;;14.82;2.70;;;13.80;99.90;;;;;;5032860;28;20471;-63
2022/11/01 08:27:44;;;;;;;14.65;3.47;;;13.90;99.90;;;;;;5032280;28;20148;-63
2022/11/01 08:30:10;;;;;;;14.63;3.55;;;13.90;99.90;;;;;;5049923;28;20393;-63
2022/11/01 08:32:36;;;;;;;17.50;4.03;;;13.90;99.90;;;;;;5032192;28;20041;-64
2022/11/01 08:35:02;;;;;;;11.75;3.05;;;13.90;99.90;;;;;;5015420;28;20041;-64
2022/11/01 08:37:28;;;;;;;14.35;3.97;;;13.90;99.90;;;;;;5029745;28;20110;-63
2022/11/01 08:39:53;;;;;;;15.05;3.33;;;14.00;99.90;;;;;;5049784;28;20053;-63
2022/11/01 08:42:19;;;;;;;16.50;3.95;;;14.10;99.90;;;;;;5032479;28;20041;-63
2022/11/01 08:44:45;;;;;;;11.98;3.38;;;14.10;99.90;;;;;;5031177;28;20041;-62
2022/11/01 08:47:11;;;;;;;15.85;3.83;;;14.10;99.90;;;;;;5032435;28;20455;-63
2022/11/01 08:49:36;;;;;;;13.57;3.22;;;14.10;99.90;;;;;;5031630;28;20040;-63
2022/11/01 08:52:02;;;;;;;16.05;4.22;;;14.10;99.90;;;;;;5031581;28;20056;-63
2022/11/01 08:54:29;;;;;;;12.02;3.10;;;14.10;99.90;;;;;;5024001;28;20048;-63
2022/11/01 08:56:55;;;;;;;14.18;3.35;;;14.10;99.90;;;;;;5011815;28;20056;-63
2022/11/01 08:59:21;;;;;;;14.32;3.53;;;14.10;99.90;;;;;;5026536;28;20116;-63
2022/11/01 09:01:46;;;;;;;17.75;5.22;;;14.10;99.90;;;;;;5029295;28;20620;-63
2022/11/01 09:04:13;;;;;;;16.92;3.92;;;14.10;99.90;;;;;;5012438;28;20056;-63
2022/11/01 09:06:38;;;;;;;12.43;3.47;;;14.10;99.90;;;;;;5045017;28;20041;-63
2022/11/01 09:09:04;;;;;;;14.07;3.63;;;14.20;99.90;;;;;;5031216;28;20430;-63
2022/11/01 09:11:30;;;;;;;19.13;4.13;;;14.30;99.90;;;;;;5031654;28;20052;-63
2022/11/01 09:13:56;;;;;;;19.13;4.30;;;14.30;99.90;;;;;;5031042;28;20807;-63
2022/11/01 09:16:23;;;;;;;16.65;4.07;;;14.40;99.90;;;;;;5031947;28;20044;-62
2022/11/01 09:18:48;;;;;;;16.73;4.32;;;14.50;99.90;;;;;;5030375;28;20040;-63
2022/11/01 09:21:15;;;;;;;16.77;4.03;;;14.60;99.90;;;;;;5049925;28;20044;-63
2022/11/01 09:23:41;;;;;;;20.02;4.03;;;14.60;99.90;;;;;;5015667;28;20461;-63
2022/11/01 09:26:09;;;;;;;16.48;3.70;;;14.50;99.90;;;;;;5010874;28;20045;-63
2022/11/01 09:28:35;;;;;;;18.02;4.38;;;14.50;99.90;;;;;;5029338;28;20046;-63
2022/11/01 09:31:03;;;;;;;16.08;4.32;;;14.50;99.90;;;;;;5011546;28;20490;-63
2022/11/01 09:33:30;;;;;;;17.50;4.35;;;14.50;99.90;;;;;;5031275;28;20057;-63
2022/11/01 09:35:55;;;;;;;12.75;3.17;;;14.50;99.90;;;;;;5012831;28;20041;-63
2022/11/01 09:38:21;;;;;;;14.98;3.85;;;14.50;99.90;;;;;;5031590;28;20038;-63
2022/11/01 09:40:58;;;;;;;19.75;4.93;;;14.50;99.90;;;;;;5030735;28;20041;-63
2022/11/01 09:43:28;;;;;;;15.93;4.18;;;14.50;99.90;;;;;;5032190;28;20541;-63
2022/11/01 09:45:57;;;;;;;15.20;4.50;;;14.50;99.90;;;;;;5013045;28;20112;-62
2022/11/01 09:48:27;;;;;;;14.68;3.53;;;14.50;99.90;;;;;;5013289;28;20514;-63
2022/11/01 09:50:53;;;;;;;11.10;3.85;;;14.50;99.90;;;;;;5031807;28;20055;-63
2022/11/01 09:53:25;;;;;;;17.08;3.65;;;14.50;99.90;;;;;;5031768;28;20037;-63
2022/11/01 09:56:12;;;;;;;12.35;3.65;;;14.60;99.90;;;;;;5012874;28;20042;-63
2022/11/01 09:58:55;;;;;;;16.58;4.15;;;14.60;99.90;;;;;;5013835;28;20395;-63
2022/11/01 10:01:40;;;;;;;16.70;4.55;;;14.70;99.90;;;;;;5006263;28;20041;-68
2022/11/01 10:04:32;;;;;;;;;;;14.70;99.90;;;;;;5034374;28;20095;-69
2022/11/01 10:07:19;;;;;;;17.08;3.60;;;14.60;99.90;;;;;;4996514;28;20273;-68
2022/11/01 10:09:50;;;;;;;22.05;4.43;;;14.60;99.90;;;;;;5032350;28;20497;-68
2022/11/01 10:12:37;;;;;;;10.98;3.05;;;14.70;99.90;;;;;;5034263;28;20077;-68
2022/11/01 10:15:22;;;;;;;15.07;3.92;;;14.60;99.90;;;;;;5040344;28;20038;-67
2022/11/01 10:17:52;;;;;;;;;;;14.70;99.90;;;;;;5013636;28;20521;-69
2022/11/01 10:20:25;;;;;;;12.40;3.17;;;14.60;99.90;;;;;;5031351;28;19917;-68
2022/11/01 10:22:51;;;;;;;11.15;3.33;;;14.70;99.90;;;;;;5024532;28;20061;-68
2022/11/01 10:25:21;;;;;;;13.43;3.45;;;14.80;99.90;;;;;;5034347;28;20045;-68
2022/11/01 10:28:11;;;;;;;17.17;4.35;;;14.80;99.90;;;;;;5035291;28;20037;-68
2022/11/01 10:30:45;;;;;;;14.15;4.10;;;14.90;99.90;;;;;;5036005;28;20402;-68
2022/11/01 10:33:36;;;;;;;17.25;4.00;;;14.90;99.90;;;;;;5036863;28;20040;-68
2022/11/01 10:36:03;;;;;;;16.83;3.58;;;14.90;99.90;;;;;;5052925;28;20043;-68
2022/11/01 10:38:38;;;;;;;10.07;2.60;;;14.80;99.90;;;;;;5036000;28;20478;-69
2022/11/01 10:41:20;;;;;;;14.07;3.85;;;14.80;99.90;;;;;;5053981;28;20039;-68
2022/11/01 10:43:49;;;;;;;15.40;4.25;;;14.80;99.90;;;;;;5033480;28;20042;-68
2022/11/01 10:46:26;;;;;;;17.75;3.50;;;14.80;99.90;;;;;;5032369;28;20040;-68
2022/11/01 10:48:56;;;;;;;10.77;3.38;;;14.80;99.90;;;;;;5035818;28;20041;-68
2022/11/01 10:51:25;;;;;;;10.05;2.70;;;14.70;99.90;;;;;;5035795;28;20064;-68
2022/11/01 10:53:54;;;;;;;11.68;2.90;;;14.70;99.90;;;;;;5035845;28;20486;-67
2022/11/01 10:56:43;;;;;;;12.70;3.58;;;14.60;99.90;;;;;;5053754;28;20490;-69
2022/11/01 10:59:28;;;;;;;12.63;3.75;;;14.60;99.90;;;;;;5035254;28;20052;-68
2022/11/01 11:01:55;;;;;;;11.55;3.10;;;14.60;99.90;;;;;;5053661;28;20052;-68
2022/11/01 11:04:23;;;;;;;13.00;3.78;;;14.60;99.90;;;;;;5053278;28;20122;-68
2022/11/01 11:06:50;;;;;;;14.90;3.78;;;14.60;99.90;;;;;;5053804;28;20049;-68
2022/11/01 11:09:34;;;;;;;19.73;4.95;;;14.60;99.90;;;;;;5053421;28;20033;-68
2022/11/01 11:12:04;;;;;;;16.40;4.10;;;14.70;99.90;;;;;;5031853;28;20143;-68
2022/11/01 11:14:32;;;;;;;9.98;3.35;;;14.70;99.90;;;;;;5024313;28;20060;-66
2022/11/01 11:16:59;;;;;;;12.85;3.40;;;14.70;99.90;;;;;;5034459;28;20116;-68
2022/11/01 11:19:28;;;;;;;13.13;3.85;;;14.70;99.90;;;;;;5053044;28;20073;-68
2022/11/01 11:22:20;;;;;;;10.80;3.17;;;14.70;99.90;;;;;;5052882;28;20064;-68
2022/11/01 11:24:46;;;;;;;19.85;4.07;;;14.80;99.90;;;;;;5053256;28;20052;-68
2022/11/01 11:27:21;;;;;;;15.90;3.78;;;14.80;99.90;;;;;;5034599;28;20393;-68
2022/11/01 11:29:53;;;;;;;11.27;3.40;;;14.80;99.90;;;;;;5035220;28;20033;-66
2022/11/01 11:32:25;;;;;;;15.65;3.92;;;14.80;99.90;;;;;;5034895;28;20870;-68
2022/11/01 11:34:57;;;;;;;12.18;3.80;;;14.80;99.90;;;;;;5053043;28;20044;-69
2022/11/01 11:37:26;;;;;;;22.05;4.45;;;14.90;99.90;;;;;;5034622;28;20437;-69
2022/11/01 11:40:11;;;;;;;12.25;3.20;;;14.90;99.90;;;;;;5030821;28;20049;-68
2022/11/01 11:42:37;;;;;;;16.00;3.33;;;15.00;99.90;;;;;;5052079;28;20083;-68
2022/11/01 11:45:21;;;;;;;14.38;3.17;;;15.00;99.90;;;;;;5034915;28;20045;-67
2022/11/01 11:47:48;;;;;;;17.08;3.70;;;15.00;99.90;;;;;;5051622;28;20493;-69
2022/11/01 11:50:24;;;;;;;12.40;3.58;;;15.00;99.90;;;;;;5053180;28;20416;-69
2022/11/01 11:53:00;;;;;;;10.90;3.50;;;15.00;99.90;;;;;;5000945;28;20390;-68
2022/11/01 11:55:40;;;;;;;11.52;3.15;;;15.00;99.90;;;;;;5017196;28;20554;-68
2022/11/01 11:58:29;;;;;;;15.18;4.07;;;14.90;99.90;;;;;;5028351;28;20045;-69
2022/11/01 12:01:14;;;;;;;15.40;3.38;;;15.00;99.90;;;;;;5011879;28;20081;-68
2022/11/01 12:03:54;;;;;;;12.90;2.95;;;15.00;99.90;;;;;;5030650;28;20398;-68
2022/11/01 12:06:30;;;;;;;11.75;3.28;;;15.00;99.90;;;;;;5030354;28;20183;-68
2022/11/01 12:08:58;;;;;;;16.75;5.03;;;15.10;99.90;;;;;;5030832;28;20401;-68
2022/11/01 12:11:36;;;;;;;17.13;4.75;;;15.10;99.90;;;;;;5049924;28;20048;-68
2022/11/01 12:14:06;;;;;;;12.25;3.08;;;15.20;99.90;;;;;;5032370;28;20052;-68
2022/11/01 12:16:41;;;;;;;13.10;3.20;;;15.20;99.90;;;;;;5031987;28;20047;-68
2022/11/01 12:19:25;;;;;;;13.25;3.42;;;15.20;99.90;;;;;;5033210;28;20036;-67
2022/11/01 12:21:51;;;;;;;13.18;3.55;;;15.20;99.90;;;;;;5062501;28;20119;-68
2022/11/01 12:24:26;;;;;;;14.18;2.80;;;15.20;99.90;;;;;;5030382;28;20055;-68
2022/11/01 12:26:54;;;;;;;12.63;3.63;;;15.20;99.90;;;;;;5032159;28;20156;-67
2022/11/01 12:29:35;;;;;;;9.30;2.95;;;15.20;99.90;;;;;;5049639;28;20116;-68
2022/11/01 12:32:09;;;;;;;25.63;3.78;;;15.30;99.90;;;;;;5049876;28;20137;-67
2022/11/01 12:34:40;;;;;;;14.43;3.30;;;15.20;99.90;;;;;;5032346;28;20068;-68
2022/11/01 12:37:18;;;;;;;13.32;3.05;;;15.10;99.90;;;;;;5045180;28;20130;-67
2022/11/01 12:40:02;;;;;;;10.77;2.45;;;15.10;99.90;;;;;;5049268;28;20591;-67
2022/11/01 12:42:38;;;;;;;7.18;2.70;;;15.20;99.90;;;;;;5049372;28;20498;-67
2022/11/01 12:45:28;;;;;;;12.63;3.03;;;15.20;99.90;;;;;;5030856;28;20049;-67
2022/11/01 12:48:08;;;;;;;14.35;2.95;;;15.20;99.90;;;;;;5030555;28;20041;-68
2022/11/01 12:51:06;;;;;;;12.05;3.20;;;15.30;99.90;;;;;;5049491;28;20037;-67
2022/11/01 12:53:48;;;;;;;11.60;3.20;;;15.30;99.90;;;;;;5032652;28;20088;-68
2022/11/01 12:56:15;;;;;;;17.23;3.83;;;15.40;99.90;;;;;;5032768;28;20040;-67
2022/11/01 12:58:41;;;;;;;14.18;3.65;;;15.40;99.90;;;;;;5048995;28;20059;-67
2022/11/01 13:01:17;;;;;;;12.27;3.72;;;15.40;99.90;;;;;;5050001;28;20441;-67
2022/11/01 13:04:05;;;;;;;14.65;3.22;;;15.40;99.90;;;;;;5031110;28;20807;-67